createdAt,value
2023-04-30T00:02:20.184Z,10.70
2023-04-30T00:04:47.196Z,10.70
2023-04-30T00:07:14.624Z,10.70
2023-04-30T00:09:41.609Z,10.60
2023-04-30T00:12:08.686Z,10.60
2023-04-30T00:14:36.490Z,10.60
2023-04-30T00:17:03.472Z,10.60
2023-04-30T00:19:30.653Z,10.50
2023-04-30T00:21:57.597Z,10.50
2023-04-30T00:24:24.493Z,10.40
2023-04-30T00:26:51.411Z,10.40
2023-04-30T00:29:18.273Z,10.30
2023-04-30T00:31:45.286Z,10.30
2023-04-30T00:34:12.183Z,10.20
2023-04-30T00:36:40.558Z,10.20
2023-04-30T00:39:07.717Z,10.20
2023-04-30T00:41:36.112Z,10.30
2023-04-30T00:44:03.081Z,10.40
2023-04-30T00:46:30.949Z,10.40
2023-04-30T00:48:58.342Z,10.30
2023-04-30T00:51:25.366Z,10.20
2023-04-30T00:53:52.540Z,10.20
2023-04-30T00:56:19.401Z,10.20
2023-04-30T00:58:46.461Z,10.10
2023-04-30T01:01:14.006Z,10.00
2023-04-30T01:03:42.457Z,10.00
2023-04-30T01:06:09.418Z,9.90
2023-04-30T01:08:36.446Z,9.80
2023-04-30T01:11:26.691Z,9.80
2023-04-30T01:14:08.765Z,9.80
2023-04-30T01:16:52.723Z,9.80
2023-04-30T01:19:36.871Z,9.90
2023-04-30T01:22:05.156Z,9.90
2023-04-30T01:24:45.920Z,9.90
2023-04-30T01:27:48.058Z,10.00
2023-04-30T01:30:17.187Z,10.00
2023-04-30T01:32:44.010Z,10.10
2023-04-30T01:35:11.081Z,10.10
2023-04-30T01:38:00.697Z,10.00
2023-04-30T01:40:48.027Z,10.10
2023-04-30T01:43:17.920Z,9.90
2023-04-30T01:46:10.648Z,9.70
2023-04-30T01:48:55.312Z,9.70
2023-04-30T01:51:36.298Z,9.60
2023-04-30T01:54:29.732Z,9.60
2023-04-30T01:57:08.045Z,9.60
2023-04-30T01:59:38.274Z,9.50
2023-04-30T02:02:06.329Z,9.50
2023-04-30T02:04:33.371Z,9.50
2023-04-30T02:07:01.122Z,9.50
2023-04-30T02:09:28.033Z,9.50
2023-04-30T02:11:54.882Z,9.50
2023-04-30T02:14:21.770Z,9.50
2023-04-30T02:16:48.648Z,9.50
2023-04-30T02:19:15.681Z,9.40
2023-04-30T02:21:42.544Z,9.30
2023-04-30T02:24:09.428Z,9.30
2023-04-30T02:26:36.383Z,9.30
2023-04-30T02:29:03.253Z,9.30
2023-04-30T02:31:30.144Z,9.30
2023-04-30T02:33:56.981Z,9.30
2023-04-30T02:36:23.772Z,9.40
2023-04-30T02:38:50.658Z,9.40
2023-04-30T02:41:17.505Z,9.50
2023-04-30T02:43:44.535Z,9.50
2023-04-30T02:46:11.415Z,9.50
2023-04-30T02:48:38.308Z,9.50
2023-04-30T02:51:05.628Z,9.50
2023-04-30T02:53:32.430Z,9.40
2023-04-30T02:55:59.328Z,9.40
2023-04-30T02:58:26.677Z,9.40
2023-04-30T03:00:53.611Z,9.30
2023-04-30T03:03:20.750Z,9.20
2023-04-30T03:05:47.782Z,9.10
2023-04-30T03:08:14.630Z,9.10
2023-04-30T03:10:41.537Z,9.10
2023-04-30T03:13:08.447Z,9.10
2023-04-30T03:15:35.505Z,9.10
2023-04-30T03:18:02.444Z,9.10
2023-04-30T03:20:29.311Z,9.10
2023-04-30T03:22:56.231Z,9.00
2023-04-30T03:25:23.109Z,9.00
2023-04-30T03:27:50.032Z,9.00
2023-04-30T03:30:16.926Z,8.90
2023-04-30T03:32:43.813Z,8.90
2023-04-30T03:35:10.984Z,8.80
2023-04-30T03:37:37.893Z,8.80
2023-04-30T03:40:05.252Z,8.70
2023-04-30T03:42:32.156Z,8.80
2023-04-30T03:44:59.093Z,8.90
2023-04-30T03:47:25.955Z,8.90
2023-04-30T03:49:55.560Z,9.00
2023-04-30T03:52:23.096Z,9.00
2023-04-30T03:54:49.964Z,9.00
2023-04-30T03:57:16.809Z,8.90
2023-04-30T03:59:43.790Z,8.80
2023-04-30T04:02:10.722Z,8.80
2023-04-30T04:04:37.706Z,8.80
2023-04-30T04:07:04.713Z,8.80
2023-04-30T04:09:31.617Z,8.90
2023-04-30T04:11:58.493Z,9.00
2023-04-30T04:14:25.503Z,9.10
2023-04-30T04:16:52.392Z,9.10
2023-04-30T04:19:19.362Z,9.10
2023-04-30T04:21:46.294Z,9.20
2023-04-30T04:24:13.136Z,9.20
2023-04-30T04:26:40.046Z,9.20
2023-04-30T04:29:08.787Z,9.30
2023-04-30T04:31:36.089Z,9.30
2023-04-30T04:34:04.793Z,9.30
2023-04-30T04:36:33.445Z,9.30
2023-04-30T04:39:03.968Z,9.30
2023-04-30T04:41:35.491Z,9.30
2023-04-30T04:44:03.354Z,9.40
2023-04-30T04:46:31.854Z,9.50
2023-04-30T04:48:59.146Z,9.50
2023-04-30T04:51:26.898Z,9.50
2023-04-30T04:53:54.009Z,9.50
2023-04-30T04:56:20.980Z,9.50
2023-04-30T04:58:47.892Z,9.60
2023-04-30T05:01:14.768Z,9.60
2023-04-30T05:03:41.868Z,9.50
2023-04-30T05:06:09.029Z,9.50
2023-04-30T05:08:36.390Z,9.50
2023-04-30T05:11:03.326Z,9.60
2023-04-30T05:13:30.315Z,9.70
2023-04-30T05:15:57.370Z,9.80
2023-04-30T05:18:24.292Z,10.00
2023-04-30T05:20:51.199Z,10.10
2023-04-30T05:23:18.182Z,10.10
2023-04-30T05:25:45.606Z,10.10
2023-04-30T05:28:12.666Z,10.20
2023-04-30T05:30:39.701Z,10.20
2023-04-30T05:33:06.679Z,10.20
2023-04-30T05:35:36.169Z,10.20
2023-04-30T05:38:03.656Z,10.20
2023-04-30T05:40:30.844Z,10.20
2023-04-30T05:42:57.906Z,10.30
2023-04-30T05:45:24.986Z,10.30
2023-04-30T05:47:52.032Z,10.30
2023-04-30T05:50:19.017Z,10.30
2023-04-30T05:52:45.882Z,10.30
2023-04-30T05:55:12.914Z,10.30
2023-04-30T05:57:39.771Z,10.20
2023-04-30T06:00:07.732Z,10.20
2023-04-30T06:02:34.788Z,10.10
2023-04-30T06:05:03.353Z,10.00
2023-04-30T06:07:30.833Z,9.90
2023-04-30T06:09:57.775Z,9.90
2023-04-30T06:12:24.869Z,9.90
2023-04-30T06:14:52.319Z,9.70
2023-04-30T06:17:19.410Z,9.80
2023-04-30T06:19:46.398Z,9.80
2023-04-30T06:22:13.285Z,10.00
2023-04-30T06:24:40.185Z,10.00
2023-04-30T06:27:07.074Z,9.80
2023-04-30T06:29:33.917Z,9.70
2023-04-30T06:32:00.908Z,9.80
2023-04-30T06:34:27.923Z,9.90
2023-04-30T06:36:54.780Z,9.90
2023-04-30T06:39:21.695Z,10.00
2023-04-30T06:41:48.552Z,9.90
2023-04-30T06:44:15.413Z,9.80
2023-04-30T06:46:42.378Z,9.70
2023-04-30T06:49:09.325Z,9.70
2023-04-30T06:51:36.563Z,9.60
2023-04-30T06:54:03.532Z,9.70
2023-04-30T06:56:30.802Z,10.00
2023-04-30T06:58:57.747Z,10.00
2023-04-30T07:01:24.703Z,10.20
2023-04-30T07:03:54.835Z,10.20
2023-04-30T07:06:22.266Z,10.10
2023-04-30T07:08:49.299Z,10.00
2023-04-30T07:11:16.858Z,10.10
2023-04-30T07:13:43.726Z,10.20
2023-04-30T07:16:11.475Z,10.40
2023-04-30T07:18:38.985Z,10.40
2023-04-30T07:21:05.929Z,10.40
2023-04-30T07:23:32.795Z,10.20
2023-04-30T07:25:59.657Z,10.10
2023-04-30T07:28:26.625Z,10.10
2023-04-30T07:30:53.569Z,10.00
2023-04-30T07:33:20.399Z,10.00
2023-04-30T07:35:47.339Z,10.10
2023-04-30T07:38:14.195Z,10.00
2023-04-30T07:40:41.066Z,10.10
2023-04-30T07:43:08.123Z,10.20
2023-04-30T07:45:35.875Z,10.10
2023-04-30T07:48:03.038Z,10.20
2023-04-30T07:50:33.784Z,10.40
2023-04-30T07:53:01.741Z,10.60
2023-04-30T07:55:28.646Z,10.70
2023-04-30T07:57:55.607Z,10.70
2023-04-30T08:00:22.728Z,10.80
2023-04-30T08:02:50.872Z,10.80
2023-04-30T08:05:18.131Z,10.90
2023-04-30T08:07:45.121Z,11.10
2023-04-30T08:10:12.109Z,11.00
2023-04-30T08:12:39.370Z,11.00
2023-04-30T08:15:07.609Z,11.00
2023-04-30T08:17:34.959Z,11.00
2023-04-30T08:20:03.970Z,11.20
2023-04-30T08:22:30.943Z,11.20
2023-04-30T08:24:57.817Z,11.20
2023-04-30T08:27:24.765Z,11.20
2023-04-30T08:29:51.624Z,11.00
2023-04-30T08:32:19.953Z,11.10
2023-04-30T08:34:47.014Z,11.10
2023-04-30T08:37:13.873Z,11.20
2023-04-30T08:39:40.764Z,11.30
2023-04-30T08:42:09.846Z,11.40
2023-04-30T08:44:39.859Z,11.50
2023-04-30T08:47:08.199Z,11.50
2023-04-30T08:49:37.059Z,11.50
2023-04-30T08:52:04.157Z,11.70
2023-04-30T08:54:34.590Z,11.80
2023-04-30T08:57:01.626Z,11.80
2023-04-30T08:59:28.576Z,11.90
2023-04-30T09:01:55.814Z,11.90
2023-04-30T09:04:23.014Z,12.10
2023-04-30T09:06:58.788Z,12.00
2023-04-30T09:09:30.941Z,12.00
2023-04-30T09:12:19.557Z,12.10
2023-04-30T09:15:06.930Z,12.10
2023-04-30T09:17:34.996Z,12.20
2023-04-30T09:20:11.582Z,12.20
2023-04-30T09:22:39.819Z,12.30
2023-04-30T09:25:08.211Z,12.30
2023-04-30T09:27:35.597Z,12.50
2023-04-30T09:30:02.914Z,12.60
2023-04-30T09:32:29.851Z,12.60
2023-04-30T09:34:56.890Z,12.70
2023-04-30T09:37:38.748Z,12.80
2023-04-30T09:40:06.700Z,12.50
2023-04-30T09:42:33.648Z,13.00
2023-04-30T09:45:00.488Z,13.10
2023-04-30T09:47:31.091Z,13.20
2023-04-30T09:50:00.114Z,13.30
2023-04-30T09:52:27.078Z,13.40
2023-04-30T09:54:54.122Z,13.60
2023-04-30T09:57:24.568Z,13.70
2023-04-30T09:59:54.001Z,14.00
2023-04-30T10:02:22.766Z,14.00
2023-04-30T10:04:55.683Z,14.00
2023-04-30T10:07:24.931Z,14.10
2023-04-30T10:09:56.059Z,14.20
2023-04-30T10:12:34.576Z,14.20
2023-04-30T10:15:15.075Z,14.20
2023-04-30T10:17:44.507Z,14.20
2023-04-30T10:20:12.930Z,14.00
2023-04-30T10:22:41.859Z,14.00
2023-04-30T10:25:13.392Z,14.10
2023-04-30T10:27:40.593Z,14.20
2023-04-30T10:30:10.787Z,14.20
2023-04-30T10:33:10.799Z,14.20
2023-04-30T10:35:45.616Z,14.40
2023-04-30T10:38:25.188Z,14.40
2023-04-30T10:40:57.400Z,14.30
2023-04-30T10:43:25.509Z,14.40
2023-04-30T10:45:52.493Z,14.40
2023-04-30T10:48:26.811Z,14.40
2023-04-30T10:50:56.583Z,14.50
2023-04-30T10:53:26.089Z,14.80
2023-04-30T10:56:00.665Z,15.50
2023-04-30T10:58:31.353Z,16.20
2023-04-30T11:01:08.573Z,16.70
2023-04-30T11:03:37.197Z,17.20
2023-04-30T11:06:20.434Z,17.60
2023-04-30T11:08:47.460Z,18.10
2023-04-30T11:11:23.909Z,18.30
2023-04-30T11:14:01.642Z,18.60
2023-04-30T11:16:35.182Z,18.70
2023-04-30T11:19:24.786Z,19.00
2023-04-30T11:22:03.877Z,18.80
2023-04-30T11:24:58.785Z,18.60
2023-04-30T11:27:30.257Z,18.30
2023-04-30T11:29:58.784Z,18.30
2023-04-30T11:32:31.788Z,18.80
2023-04-30T11:34:58.878Z,18.90
2023-04-30T11:37:32.881Z,19.20
2023-04-30T11:40:02.952Z,19.70
2023-04-30T11:42:36.591Z,20.20
2023-04-30T11:45:15.486Z,20.80
2023-04-30T11:47:47.615Z,20.70
2023-04-30T11:50:16.676Z,20.90
2023-04-30T11:52:49.480Z,21.00
2023-04-30T11:55:18.472Z,21.50
2023-04-30T11:57:47.351Z,21.60
2023-04-30T12:00:19.356Z,21.50
2023-04-30T12:02:49.202Z,21.40
2023-04-30T12:05:17.461Z,21.20
2023-04-30T12:07:47.150Z,21.30
2023-04-30T12:10:14.331Z,21.20
2023-04-30T12:12:43.139Z,21.30
2023-04-30T12:15:17.851Z,21.80
2023-04-30T12:17:46.544Z,21.90
2023-04-30T12:20:15.775Z,22.30
2023-04-30T12:22:43.690Z,22.40
2023-04-30T12:25:18.921Z,22.00
2023-04-30T12:27:48.054Z,21.60
2023-04-30T12:30:15.453Z,21.60
2023-04-30T12:32:44.578Z,21.90
2023-04-30T12:35:24.415Z,22.40
2023-04-30T12:38:01.978Z,23.00
2023-04-30T12:40:28.815Z,23.40
2023-04-30T12:43:07.746Z,24.00
2023-04-30T12:45:51.099Z,24.50
2023-04-30T12:48:20.326Z,24.60
2023-04-30T12:50:58.677Z,24.60
2023-04-30T12:53:25.786Z,24.50
2023-04-30T12:56:16.666Z,24.60
2023-04-30T12:58:47.332Z,24.60
2023-04-30T13:01:21.165Z,24.50
2023-04-30T13:03:48.402Z,24.90
2023-04-30T13:06:15.576Z,25.70
2023-04-30T13:08:57.009Z,25.60
2023-04-30T13:11:26.683Z,25.40
2023-04-30T13:13:56.967Z,25.70
2023-04-30T13:16:24.900Z,25.80
2023-04-30T13:18:52.225Z,26.00
2023-04-30T13:21:19.060Z,26.10
2023-04-30T13:23:52.835Z,26.70
2023-04-30T13:26:23.003Z,26.90
2023-04-30T13:28:49.988Z,26.50
2023-04-30T13:31:17.173Z,26.60
2023-04-30T13:33:45.323Z,26.90
2023-04-30T13:36:12.221Z,26.80
2023-04-30T13:38:41.768Z,26.50
2023-04-30T13:41:08.651Z,26.70
2023-04-30T13:43:35.543Z,26.60
2023-04-30T13:46:02.421Z,26.80
2023-04-30T13:48:29.312Z,26.60
2023-04-30T13:50:56.909Z,27.00
2023-04-30T13:53:24.525Z,27.90
2023-04-30T13:55:51.815Z,28.50
2023-04-30T13:58:21.796Z,28.50
2023-04-30T14:00:49.284Z,28.50
2023-04-30T14:03:16.276Z,28.70
2023-04-30T14:05:43.247Z,28.90
2023-04-30T14:08:10.282Z,28.20
2023-04-30T14:10:37.971Z,28.70
2023-04-30T14:13:04.758Z,29.00
2023-04-30T14:15:32.683Z,28.70
2023-04-30T14:18:00.607Z,28.70
2023-04-30T14:20:27.694Z,28.40
2023-04-30T14:22:54.575Z,28.40
2023-04-30T14:25:22.621Z,28.20
2023-04-30T14:27:49.472Z,27.50
2023-04-30T14:30:16.376Z,26.30
2023-04-30T14:32:43.267Z,25.50
2023-04-30T14:35:10.468Z,25.80
2023-04-30T14:37:37.399Z,26.70
2023-04-30T14:40:06.866Z,27.60
2023-04-30T14:42:33.875Z,28.80
2023-04-30T14:45:00.918Z,29.60
2023-04-30T14:47:28.443Z,30.00
2023-04-30T14:49:55.882Z,30.30
2023-04-30T14:52:23.126Z,30.10
2023-04-30T14:54:50.102Z,29.80
2023-04-30T14:57:18.618Z,29.40
2023-04-30T14:59:45.489Z,29.40
2023-04-30T15:02:12.439Z,28.10
2023-04-30T15:04:39.489Z,27.30
2023-04-30T15:07:06.416Z,26.70
2023-04-30T15:09:33.322Z,26.80
2023-04-30T15:12:00.230Z,27.30
2023-04-30T15:14:27.285Z,27.60
2023-04-30T15:16:54.411Z,28.20
2023-04-30T15:19:21.435Z,28.50
2023-04-30T15:21:49.119Z,28.80
2023-04-30T15:24:16.192Z,29.00
2023-04-30T15:26:43.095Z,28.80
2023-04-30T15:29:10.574Z,28.80
2023-04-30T15:31:37.774Z,29.20
2023-04-30T15:34:04.791Z,28.60
2023-04-30T15:36:32.426Z,28.70
2023-04-30T15:38:59.619Z,28.40
2023-04-30T15:41:26.479Z,28.70
2023-04-30T15:43:53.431Z,29.10
2023-04-30T15:46:20.453Z,29.40
2023-04-30T15:48:47.345Z,29.50
2023-04-30T15:51:14.368Z,29.30
2023-04-30T15:53:41.248Z,29.40
2023-04-30T15:56:09.646Z,29.00
2023-04-30T15:58:36.756Z,28.60
2023-04-30T16:01:03.767Z,28.70
2023-04-30T16:03:31.607Z,27.90
2023-04-30T16:06:01.059Z,26.50
2023-04-30T16:08:28.494Z,26.40
2023-04-30T16:10:55.521Z,27.20
2023-04-30T16:13:22.429Z,28.00
2023-04-30T16:15:50.231Z,28.80
2023-04-30T16:18:17.206Z,29.10
2023-04-30T16:20:47.188Z,29.60
2023-04-30T16:23:14.398Z,30.00
2023-04-30T16:25:41.277Z,30.40
2023-04-30T16:28:08.189Z,30.70
2023-04-30T16:30:36.975Z,30.50
2023-04-30T16:33:04.021Z,30.10
2023-04-30T16:35:31.278Z,29.80
2023-04-30T16:37:58.158Z,29.40
2023-04-30T16:40:24.967Z,29.20
2023-04-30T16:42:52.222Z,29.40
2023-04-30T16:45:19.113Z,29.10
2023-04-30T16:47:46.150Z,29.10
2023-04-30T16:50:13.019Z,29.00
2023-04-30T16:52:39.871Z,28.80
2023-04-30T16:55:07.162Z,28.70
2023-04-30T16:57:34.015Z,28.20
2023-04-30T17:00:00.847Z,27.90
2023-04-30T17:02:27.851Z,27.70
2023-04-30T17:04:54.830Z,27.50
2023-04-30T17:07:21.710Z,27.30
2023-04-30T17:09:48.830Z,27.20
2023-04-30T17:12:15.917Z,27.30
2023-04-30T17:14:43.049Z,27.20
2023-04-30T17:17:10.071Z,27.00
2023-04-30T17:19:36.950Z,26.90
2023-04-30T17:22:03.831Z,26.70
2023-04-30T17:24:30.858Z,27.00
2023-04-30T17:26:59.360Z,27.00
2023-04-30T17:29:26.605Z,27.00
2023-04-30T17:31:53.704Z,26.70
2023-04-30T17:34:20.933Z,26.80
2023-04-30T17:36:50.090Z,26.80
2023-04-30T17:39:18.777Z,26.50
2023-04-30T17:41:45.730Z,26.40
2023-04-30T17:44:12.665Z,26.00
2023-04-30T17:46:39.826Z,25.80
2023-04-30T17:49:08.321Z,25.40
2023-04-30T17:51:35.463Z,25.20
2023-04-30T17:54:02.416Z,25.10
2023-04-30T17:56:31.486Z,24.90
2023-04-30T17:58:58.896Z,24.20
2023-04-30T18:01:26.916Z,23.80
2023-04-30T18:03:54.316Z,23.20
2023-04-30T18:06:21.466Z,22.80
2023-04-30T18:08:48.408Z,22.20
2023-04-30T18:11:15.309Z,21.80
2023-04-30T18:13:43.080Z,21.40
2023-04-30T18:16:10.709Z,21.20
2023-04-30T18:18:37.787Z,21.00
2023-04-30T18:21:04.922Z,20.60
2023-04-30T18:23:31.755Z,20.40
2023-04-30T18:25:58.733Z,20.20
2023-04-30T18:28:26.254Z,20.00
2023-04-30T18:30:53.183Z,19.90
2023-04-30T18:33:20.091Z,19.70
2023-04-30T18:35:50.508Z,19.50
2023-04-30T18:38:18.155Z,19.40
2023-04-30T18:40:45.048Z,19.10
2023-04-30T18:43:13.176Z,19.00
2023-04-30T18:45:40.126Z,18.80
2023-04-30T18:48:07.909Z,18.60
2023-04-30T18:50:34.947Z,18.40
2023-04-30T18:53:01.928Z,18.40
2023-04-30T18:55:28.807Z,18.20
2023-04-30T18:57:56.462Z,18.10
2023-04-30T19:00:23.424Z,18.00
2023-04-30T19:02:50.539Z,18.00
2023-04-30T19:05:17.723Z,17.90
2023-04-30T19:07:45.122Z,17.80
2023-04-30T19:10:12.069Z,17.60
2023-04-30T19:12:39.728Z,17.50
2023-04-30T19:15:08.381Z,17.50
2023-04-30T19:17:35.484Z,17.30
2023-04-30T19:20:02.784Z,17.30
2023-04-30T19:22:29.641Z,17.20
2023-04-30T19:24:56.544Z,17.00
2023-04-30T19:27:23.420Z,17.00
2023-04-30T19:29:52.798Z,16.90
2023-04-30T19:32:20.592Z,16.70
2023-04-30T19:34:47.532Z,16.60
2023-04-30T19:37:14.535Z,16.50
2023-04-30T19:39:41.529Z,16.50
2023-04-30T19:42:08.811Z,16.30
2023-04-30T19:44:37.207Z,16.30
2023-04-30T19:47:05.016Z,16.20
2023-04-30T19:49:34.106Z,16.10
2023-04-30T19:52:01.722Z,16.10
2023-04-30T19:54:28.611Z,16.10
2023-04-30T19:56:55.558Z,16.10
2023-04-30T19:59:22.480Z,16.10
2023-04-30T20:01:49.459Z,16.00
2023-04-30T20:04:16.646Z,15.90
2023-04-30T20:06:44.701Z,15.90
2023-04-30T20:09:11.785Z,15.80
2023-04-30T20:11:38.605Z,15.70
2023-04-30T20:14:08.233Z,15.50
2023-04-30T20:16:35.201Z,15.50
2023-04-30T20:19:02.268Z,15.50
2023-04-30T20:21:29.525Z,15.40
2023-04-30T20:23:56.357Z,15.40
2023-04-30T20:26:25.762Z,15.30
2023-04-30T20:28:53.262Z,15.30
2023-04-30T20:31:21.233Z,15.30
2023-04-30T20:33:48.498Z,15.20
2023-04-30T20:36:16.723Z,15.10
2023-04-30T20:38:43.937Z,15.00
2023-04-30T20:41:10.893Z,14.90
2023-04-30T20:43:38.095Z,14.90
2023-04-30T20:46:05.043Z,15.00
2023-04-30T20:48:31.917Z,14.90
2023-04-30T20:50:59.126Z,14.90
2023-04-30T20:53:25.918Z,14.80
2023-04-30T20:55:58.306Z,14.90
2023-04-30T20:58:25.289Z,14.80
2023-04-30T21:00:52.217Z,14.90
2023-04-30T21:03:19.293Z,14.90
2023-04-30T21:05:46.266Z,14.90
2023-04-30T21:08:13.907Z,14.90
2023-04-30T21:10:41.655Z,14.80
2023-04-30T21:13:09.501Z,14.80
2023-04-30T21:15:36.707Z,14.80
2023-04-30T21:18:04.065Z,14.60
2023-04-30T21:20:31.526Z,14.60
2023-04-30T21:22:58.673Z,14.50
2023-04-30T21:25:25.686Z,14.40
2023-04-30T21:27:52.512Z,14.40
2023-04-30T21:30:22.384Z,14.30
2023-04-30T21:32:57.757Z,14.30
2023-04-30T21:35:25.211Z,14.20
2023-04-30T21:37:52.149Z,14.20
2023-04-30T21:40:19.100Z,14.00
2023-04-30T21:42:45.933Z,14.00
2023-04-30T21:45:13.228Z,14.00
2023-04-30T21:47:40.184Z,14.00
2023-04-30T21:50:07.894Z,14.00
2023-04-30T21:52:34.746Z,13.90
2023-04-30T21:55:01.791Z,13.80
2023-04-30T21:57:28.834Z,13.80
2023-04-30T21:59:55.878Z,13.80
2023-04-30T22:02:24.178Z,13.70
2023-04-30T22:04:51.744Z,13.80
2023-04-30T22:07:18.567Z,13.80
2023-04-30T22:09:45.595Z,13.80
2023-04-30T22:12:12.690Z,13.70
2023-04-30T22:14:39.534Z,13.70
2023-04-30T22:17:06.662Z,13.60
2023-04-30T22:19:33.506Z,13.50
2023-04-30T22:22:00.387Z,13.40
2023-04-30T22:24:27.228Z,13.50
2023-04-30T22:26:54.755Z,13.50
2023-04-30T22:29:21.570Z,13.50
2023-04-30T22:31:48.437Z,13.60
2023-04-30T22:34:17.532Z,13.50
2023-04-30T22:36:44.501Z,13.50
2023-04-30T22:39:11.879Z,13.40
2023-04-30T22:41:38.865Z,13.40
2023-04-30T22:44:05.820Z,13.40
2023-04-30T22:46:34.857Z,13.30
2023-04-30T22:49:02.010Z,13.30
2023-04-30T22:51:28.965Z,13.30
2023-04-30T22:53:56.718Z,13.30
2023-04-30T22:56:24.199Z,13.40
2023-04-30T22:58:51.064Z,13.40
2023-04-30T23:01:18.081Z,13.40
2023-04-30T23:03:44.960Z,13.40
2023-04-30T23:06:11.984Z,13.40
2023-04-30T23:08:38.956Z,13.30
2023-04-30T23:11:06.300Z,13.30
2023-04-30T23:13:33.165Z,13.20
2023-04-30T23:16:01.326Z,13.20
2023-04-30T23:18:28.282Z,13.20
2023-04-30T23:20:58.915Z,13.20
2023-04-30T23:23:26.521Z,13.20
2023-04-30T23:25:54.121Z,13.10
2023-04-30T23:28:21.386Z,13.10
2023-04-30T23:30:52.343Z,13.10
2023-04-30T23:33:19.931Z,13.10
2023-04-30T23:35:47.362Z,13.10
2023-04-30T23:38:15.129Z,13.00
2023-04-30T23:40:42.481Z,13.00
2023-04-30T23:43:10.355Z,13.00
2023-04-30T23:45:41.485Z,12.90
2023-04-30T23:48:09.161Z,12.90
2023-04-30T23:50:37.991Z,12.90
2023-04-30T23:53:04.907Z,12.90
2023-04-30T23:55:31.805Z,12.90
2023-04-30T23:57:58.670Z,12.90
